Time;durP1;ratioP1;P1;durP2;ratioP2;P2;SDS_P1;SDS_P2;PMS_P1;PMS_P2;Temp;Humidity;BMP_temperature;BMP_pressure;BME280_temperature;BME280_humidity;BME280_pressure;Samples;Min_cycle;Max_cycle;Signal;HPM_P1;HPM_P2
2022/10/03 00:00:25;;;;;;;13.38;3.55;;;20.40;90.60;;;;;;4975083;28;20078;-70
2022/10/03 00:03:35;;;;;;;12.82;3.88;;;20.30;90.50;;;;;;4975028;28;20027;-67
2022/10/03 00:06:14;;;;;;;12.98;3.08;;;20.30;90.70;;;;;;4974648;28;20035;-68
2022/10/03 00:09:17;;;;;;;13.30;2.85;;;20.30;90.70;;;;;;4974632;28;20536;-67
2022/10/03 00:12:11;;;;;;;11.93;3.55;;;20.20;90.70;;;;;;4957351;28;20041;-68
2022/10/03 00:14:55;;;;;;;;;;;20.20;90.70;;;;;;4974819;28;20023;-67
2022/10/03 00:17:46;;;;;;;9.98;3.30;;;20.10;90.60;;;;;;4974566;28;19971;-67
2022/10/03 00:20:33;;;;;;;14.27;3.75;;;20.10;90.80;;;;;;4974703;28;20054;-66
2022/10/03 00:23:07;;;;;;;11.88;3.70;;;20.00;90.70;;;;;;4974557;28;20034;-66
2022/10/03 00:25:38;;;;;;;13.32;3.60;;;20.00;90.80;;;;;;4957192;28;20053;-66
2022/10/03 00:28:32;;;;;;;11.88;3.55;;;19.90;91.00;;;;;;4974432;28;20019;-66
2022/10/03 00:31:07;;;;;;;10.87;2.70;;;19.80;90.90;;;;;;4973546;28;20027;-67
2022/10/03 00:33:36;;;;;;;13.35;3.40;;;19.80;91.10;;;;;;4974538;28;20078;-66
2022/10/03 00:36:20;;;;;;;13.60;3.10;;;19.80;91.10;;;;;;4974405;28;20026;-68
2022/10/03 00:39:10;;;;;;;8.75;3.40;;;19.70;90.90;;;;;;4974385;28;20098;-67
2022/10/03 00:42:22;;;;;;;10.85;3.30;;;19.60;91.20;;;;;;4974569;28;20367;-68
2022/10/03 00:45:19;;;;;;;11.07;3.60;;;19.60;91.30;;;;;;4974053;28;20035;-67
2022/10/03 00:48:22;;;;;;;13.80;3.60;;;19.60;91.30;;;;;;4974085;28;20058;-67
2022/10/03 00:50:59;;;;;;;10.18;4.10;;;19.50;91.40;;;;;;4953747;28;20109;-67
2022/10/03 00:53:46;;;;;;;15.85;4.47;;;19.60;91.50;;;;;;4974196;28;20361;-67
2022/10/03 00:56:27;;;;;;;8.88;3.67;;;19.60;91.40;;;;;;4974012;28;20027;-66
2022/10/03 00:59:18;;;;;;;9.82;4.63;;;19.50;91.30;;;;;;4974183;28;20035;-68
2022/10/03 01:01:47;;;;;;;12.15;4.10;;;19.60;91.30;;;;;;4956523;28;20345;-68
2022/10/03 01:04:25;;;;;;;13.75;4.45;;;19.60;91.10;;;;;;4973749;28;20488;-68
2022/10/03 01:07:19;;;;;;;12.93;4.55;;;19.50;91.30;;;;;;4974127;28;20473;-68
2022/10/03 01:10:15;;;;;;;13.43;4.87;;;19.40;91.30;;;;;;4974148;28;20053;-68
2022/10/03 01:12:50;;;;;;;12.43;3.85;;;19.40;91.40;;;;;;4974282;28;20717;-66
2022/10/03 01:15:38;;;;;;;20.13;4.45;;;19.40;91.40;;;;;;4973909;28;20484;-67
2022/10/03 01:18:27;;;;;;;16.98;4.90;;;19.30;91.50;;;;;;4973874;28;20027;-67
2022/10/03 01:21:47;;;;;;;12.85;4.65;;;19.30;91.50;;;;;;4973799;28;20027;-66
2022/10/03 01:24:24;;;;;;;15.90;4.97;;;19.20;91.60;;;;;;4932984;29;20099;-67
2022/10/03 01:27:03;;;;;;;15.93;4.60;;;19.20;91.40;;;;;;4933220;29;20031;-66
2022/10/03 01:32:54;;;;;;;13.10;4.53;;;19.10;91.80;;;;;;4973889;28;20034;-72
2022/10/03 01:36:06;;;;;;;13.55;4.65;;;19.10;91.80;;;;;;4973633;28;20030;-74
2022/10/03 01:38:31;;;;;;;10.45;3.85;;;19.10;91.60;;;;;;4963755;28;20030;-73
2022/10/03 01:41:32;;;;;;;14.13;4.18;;;19.10;91.50;;;;;;4974454;28;20031;-69
2022/10/03 01:44:23;;;;;;;12.95;3.88;;;19.10;91.40;;;;;;4970130;28;20186;-72
2022/10/03 01:47:07;;;;;;;12.73;4.00;;;19.10;91.70;;;;;;4977469;28;20027;-73
2022/10/03 01:50:05;;;;;;;14.50;4.03;;;19.10;91.70;;;;;;4977210;28;20034;-73
2022/10/03 01:52:31;;;;;;;13.35;3.45;;;19.00;91.50;;;;;;4969923;28;20038;-73
2022/10/03 01:55:33;;;;;;;16.35;4.32;;;19.00;91.50;;;;;;4977210;28;20053;-71
2022/10/03 01:58:16;;;;;;;11.23;3.50;;;19.00;91.70;;;;;;4977195;28;20030;-74
2022/10/03 02:00:55;;;;;;;13.05;3.67;;;19.00;91.60;;;;;;4977113;28;20492;-69
2022/10/03 02:03:27;;;;;;;9.75;3.58;;;19.00;91.60;;;;;;4976921;28;20027;-71
2022/10/03 02:06:19;;;;;;;9.75;3.33;;;19.00;91.50;;;;;;4977129;28;20475;-74
2022/10/03 02:09:03;;;;;;;9.70;3.17;;;18.90;91.50;;;;;;4977211;28;20061;-72
2022/10/03 02:11:37;;;;;;;11.98;3.38;;;18.90;91.50;;;;;;4977306;28;20041;-72
2022/10/03 02:14:33;;;;;;;11.15;3.05;;;18.90;91.70;;;;;;4976692;28;20035;-70
2022/10/03 02:17:22;;;;;;;13.65;3.35;;;18.80;91.50;;;;;;4976789;28;20358;-73
2022/10/03 02:20:04;;;;;;;10.52;3.25;;;18.80;91.70;;;;;;4977008;28;20034;-71
2022/10/03 02:22:32;;;;;;;11.95;2.80;;;18.80;91.70;;;;;;4976671;28;20034;-71
2022/10/03 02:25:47;;;;;;;8.82;3.38;;;18.80;91.40;;;;;;4976441;28;20034;-72
2022/10/03 02:28:46;;;;;;;14.15;5.13;;;18.80;91.60;;;;;;4946286;28;20051;-72
2022/10/03 02:31:31;;;;;;;8.45;3.33;;;18.80;91.50;;;;;;4976647;28;20026;-73
2022/10/03 02:34:08;;;;;;;8.07;2.90;;;18.80;91.50;;;;;;4976466;28;20069;-67
2022/10/03 02:36:56;;;;;;;10.93;2.75;;;18.80;91.50;;;;;;4959146;28;20400;-66
2022/10/03 02:39:33;;;;;;;9.32;2.63;;;18.70;91.30;;;;;;4976419;28;20097;-68
2022/10/03 02:42:23;;;;;;;10.25;2.90;;;18.70;91.20;;;;;;4976241;28;20027;-67
2022/10/03 02:45:14;;;;;;;8.38;2.47;;;18.70;91.50;;;;;;4976008;28;20497;-67
2022/10/03 02:48:25;;;;;;;7.50;2.10;;;18.70;91.30;;;;;;4976188;28;20118;-67
2022/10/03 02:51:26;;;;;;;9.43;2.40;;;18.70;91.50;;;;;;4975885;28;20500;-66
2022/10/03 02:54:14;;;;;;;8.48;2.53;;;18.70;91.50;;;;;;4953609;28;20038;-67
2022/10/03 02:57:21;;;;;;;7.40;2.75;;;18.60;91.30;;;;;;4975970;28;20406;-67
2022/10/03 03:00:16;;;;;;;11.43;2.75;;;18.60;91.40;;;;;;4975860;28;20447;-67
2022/10/03 03:02:48;;;;;;;13.63;3.35;;;18.60;91.30;;;;;;4976146;28;20052;-66
2022/10/03 03:05:34;;;;;;;8.82;2.90;;;18.60;91.30;;;;;;4975722;28;20057;-65
2022/10/03 03:08:24;;;;;;;12.45;3.08;;;18.60;91.10;;;;;;4975761;28;20029;-66
2022/10/03 03:11:27;;;;;;;10.10;3.13;;;18.50;91.10;;;;;;4975860;28;20484;-67
2022/10/03 03:13:57;;;;;;;8.98;2.70;;;18.50;91.00;;;;;;4975708;28;20475;-66
2022/10/03 03:16:55;;;;;;;10.25;3.38;;;18.50;90.90;;;;;;4975593;28;20031;-66
2022/10/03 03:19:30;;;;;;;8.65;3.15;;;18.50;90.90;;;;;;4975568;28;20027;-67
2022/10/03 03:22:14;;;;;;;7.90;2.90;;;18.50;91.10;;;;;;4975684;28;20062;-66
2022/10/03 03:24:45;;;;;;;12.38;3.30;;;18.50;91.10;;;;;;4975317;28;20046;-66
2022/10/03 03:27:16;;;;;;;8.45;3.22;;;18.40;90.80;;;;;;4975451;28;20037;-66
2022/10/03 03:29:57;;;;;;;11.93;3.28;;;18.40;91.10;;;;;;4975497;28;20396;-66
2022/10/03 03:32:26;;;;;;;13.88;2.90;;;18.50;91.00;;;;;;4975530;28;20022;-66
2022/10/03 03:35:20;;;;;;;7.20;2.65;;;18.40;91.20;;;;;;4975295;28;20065;-66
2022/10/03 03:38:05;;;;;;;7.15;2.65;;;18.40;91.10;;;;;;4975354;28;20093;-66
2022/10/03 03:41:14;;;;;;;6.55;2.40;;;18.40;91.20;;;;;;4975134;28;20457;-66
2022/10/03 03:44:15;;;;;;;8.48;2.22;;;18.40;91.30;;;;;;4939413;28;20046;-66
2022/10/03 03:46:59;;;;;;;9.55;2.50;;;18.40;91.40;;;;;;4972974;28;20049;-68
2022/10/03 03:49:44;;;;;;;8.88;2.33;;;18.40;91.20;;;;;;4957956;28;20026;-69
2022/10/03 03:52:28;;;;;;;8.98;2.60;;;18.40;91.40;;;;;;4975053;28;20472;-68
2022/10/03 03:55:11;;;;;;;8.32;2.15;;;18.40;91.30;;;;;;4957317;28;20037;-67
2022/10/03 03:58:00;;;;;;;9.90;2.35;;;18.30;91.40;;;;;;4957420;28;20054;-66
2022/10/03 04:01:18;;;;;;;10.00;2.35;;;18.30;91.50;;;;;;4974975;28;20038;-67
2022/10/03 04:04:08;;;;;;;10.05;2.67;;;18.30;91.50;;;;;;4933783;29;20036;-68
2022/10/03 04:06:55;;;;;;;9.75;2.30;;;18.40;91.50;;;;;;4934105;29;20043;-67
2022/10/03 04:09:42;;;;;;;8.50;2.53;;;18.40;91.50;;;;;;4965144;28;20054;-67
2022/10/03 04:12:13;;;;;;;11.07;2.45;;;18.40;91.20;;;;;;4954480;28;20539;-67
2022/10/03 04:14:54;;;;;;;9.57;2.10;;;18.40;91.40;;;;;;4974660;28;20043;-66
2022/10/03 04:20:54;;;;;;;11.85;2.40;;;18.30;91.50;;;;;;4974855;28;20210;-66
2022/10/03 04:23:45;;;;;;;9.57;2.35;;;18.30;91.50;;;;;;4974371;28;20030;-66
2022/10/03 04:26:39;;;;;;;9.88;2.70;;;18.30;91.50;;;;;;4974603;28;20376;-66
2022/10/03 04:29:29;;;;;;;9.10;2.72;;;18.30;91.50;;;;;;4957003;28;20031;-66
2022/10/03 04:32:15;;;;;;;13.43;2.88;;;18.20;91.70;;;;;;4974336;28;20035;-67
2022/10/03 04:35:15;;;;;;;11.57;2.63;;;18.20;91.80;;;;;;4974152;28;20027;-67
2022/10/03 04:37:47;;;;;;;7.75;2.60;;;18.10;91.90;;;;;;4956866;28;20065;-70
2022/10/03 04:40:21;;;;;;;12.73;3.17;;;18.10;92.00;;;;;;4974135;28;20110;-66
2022/10/03 04:43:05;;;;;;;11.20;2.70;;;18.00;92.20;;;;;;4974121;28;20105;-66
2022/10/03 04:46:04;;;;;;;9.07;2.88;;;18.00;92.30;;;;;;4974037;28;20074;-67
2022/10/03 04:48:44;;;;;;;9.00;2.72;;;18.00;92.40;;;;;;4974073;28;20058;-66
2022/10/03 04:51:28;;;;;;;13.88;3.08;;;18.00;92.60;;;;;;4956543;28;20055;-67
2022/10/03 04:53:55;;;;;;;14.40;2.78;;;18.00;92.50;;;;;;4973683;28;20023;-65
2022/10/03 04:56:27;;;;;;;10.35;3.15;;;17.90;92.50;;;;;;4973739;28;20042;-67
2022/10/03 04:58:55;;;;;;;9.07;3.08;;;17.90;92.70;;;;;;4956409;28;20030;-67
2022/10/03 05:01:48;;;;;;;12.35;3.65;;;18.00;92.70;;;;;;4973852;28;20034;-67
2022/10/03 05:04:59;;;;;;;9.02;3.20;;;18.00;92.70;;;;;;4973887;28;20031;-71
2022/10/03 05:08:03;;;;;;;13.27;2.95;;;18.00;92.80;;;;;;4951657;28;20041;-66
2022/10/03 05:10:38;;;;;;;;;;;18.00;92.70;;;;;;4954867;28;20050;-67
2022/10/03 05:13:21;;;;;;;7.75;2.40;;;18.00;92.70;;;;;;4954542;29;19910;-67
2022/10/03 05:15:48;;;;;;;8.68;2.60;;;18.00;92.40;;;;;;4954939;28;20051;-66
2022/10/03 05:19:16;;;;;;;8.57;2.83;;;18.00;92.60;;;;;;4958486;28;20473;-69
2022/10/03 05:22:00;;;;;;;9.98;3.10;;;18.10;92.50;;;;;;4936520;29;20144;-66
2022/10/03 05:25:03;;;;;;;10.88;2.70;;;18.10;92.20;;;;;;4956624;28;20047;-67
2022/10/03 05:27:40;;;;;;;9.98;3.13;;;18.10;92.20;;;;;;4958596;29;20027;-68
2022/10/03 05:30:42;;;;;;;8.18;2.70;;;18.00;92.30;;;;;;4958303;28;20086;-66
2022/10/03 05:33:16;;;;;;;8.95;3.53;;;18.00;92.10;;;;;;4976643;28;20031;-72
2022/10/03 05:36:26;;;;;;;13.23;3.03;;;18.00;92.00;;;;;;4977552;28;20027;-67
2022/10/03 05:39:36;;;;;;;10.55;2.80;;;18.10;92.10;;;;;;4972014;28;20146;-68
2022/10/03 05:42:11;;;;;;;8.07;2.95;;;18.00;92.00;;;;;;4958364;29;20023;-68
2022/10/03 05:45:06;;;;;;;9.25;2.75;;;18.10;91.90;;;;;;4966049;28;20468;-68
2022/10/03 05:47:55;;;;;;;10.30;2.95;;;18.10;91.90;;;;;;4952041;28;20030;-68
2022/10/03 05:50:46;;;;;;;10.30;2.83;;;18.10;91.90;;;;;;4964832;28;20026;-69
2022/10/03 05:53:27;;;;;;;8.05;2.20;;;18.10;91.90;;;;;;4963208;28;20946;-68
2022/10/03 05:56:12;;;;;;;7.75;1.90;;;18.10;91.80;;;;;;4959677;28;20042;-68
2022/10/03 05:58:55;;;;;;;10.70;2.33;;;18.20;91.70;;;;;;4960775;28;20031;-73
2022/10/03 06:01:58;;;;;;;8.63;2.55;;;18.20;91.60;;;;;;4960712;28;20042;-70
2022/10/03 06:05:00;;;;;;;7.07;2.47;;;18.20;91.60;;;;;;4949905;28;20054;-70
2022/10/03 06:07:30;;;;;;;7.00;2.30;;;18.20;91.50;;;;;;4960166;28;20033;-71
2022/10/03 06:10:17;;;;;;;8.90;2.28;;;18.30;91.20;;;;;;4978327;28;21414;-74
2022/10/03 06:13:19;;;;;;;11.38;2.58;;;18.40;91.30;;;;;;4979693;28;20543;-69
2022/10/03 06:15:57;;;;;;;9.13;2.70;;;18.50;91.40;;;;;;4981064;28;20065;-68
2022/10/03 06:18:37;;;;;;;9.43;2.45;;;18.70;90.90;;;;;;4981356;28;20049;-70
2022/10/03 06:21:15;;;;;;;7.22;2.45;;;18.90;90.80;;;;;;4980077;28;20034;-68
2022/10/03 06:24:07;;;;;;;11.98;3.33;;;19.10;90.60;;;;;;4979814;28;21168;-68
2022/10/03 06:26:57;;;;;;;10.63;3.10;;;19.20;90.30;;;;;;4948413;28;20109;-68
2022/10/03 06:29:31;;;;;;;13.15;3.08;;;19.30;90.10;;;;;;4978638;28;21932;-68
2022/10/03 06:31:57;;;;;;;17.17;2.55;;;19.40;89.90;;;;;;4979976;28;20140;-71
2022/10/03 06:34:30;;;;;;;14.18;2.45;;;19.60;89.00;;;;;;4980751;28;20031;-68
2022/10/03 06:37:33;;;;;;;8.25;2.33;;;19.60;88.70;;;;;;4980886;28;20030;-68
2022/10/03 06:40:17;;;;;;;9.57;2.75;;;19.80;88.30;;;;;;4979218;28;20076;-69
2022/10/03 06:43:04;;;;;;;9.50;2.40;;;19.90;87.60;;;;;;4979675;28;20038;-68
2022/10/03 06:45:49;;;;;;;10.52;2.97;;;19.90;87.80;;;;;;4980168;28;20056;-71
2022/10/03 06:48:24;;;;;;;17.70;3.92;;;20.00;87.70;;;;;;4979870;28;20030;-67
2022/10/03 06:51:14;;;;;;;11.48;2.80;;;20.10;87.70;;;;;;4979508;28;20034;-67
2022/10/03 06:54:04;;;;;;;9.07;2.72;;;20.10;87.40;;;;;;4979331;28;20053;-68
2022/10/03 06:57:00;;;;;;;13.45;3.05;;;20.20;87.30;;;;;;4962100;28;20396;-69
2022/10/03 06:59:44;;;;;;;15.18;3.67;;;20.40;87.10;;;;;;4979438;28;20046;-70
2022/10/03 07:02:25;;;;;;;;;;;20.50;86.50;;;;;;4980094;28;20925;-69
2022/10/03 07:05:23;;;;;;;11.10;3.35;;;20.60;86.30;;;;;;4980567;28;20021;-73
2022/10/03 07:08:07;;;;;;;11.02;2.92;;;20.80;86.20;;;;;;4981228;28;20080;-72
2022/10/03 07:10:57;;;;;;;9.50;2.40;;;20.90;85.30;;;;;;4982000;28;20046;-72
2022/10/03 07:13:32;;;;;;;12.52;2.78;;;21.00;84.50;;;;;;4980673;28;20051;-71
2022/10/03 07:16:22;;;;;;;22.17;4.15;;;21.10;84.30;;;;;;4980714;28;20061;-72
2022/10/03 07:19:27;;;;;;;13.93;3.13;;;21.10;83.90;;;;;;4980714;28;20069;-69
2022/10/03 07:22:24;;;;;;;16.08;3.83;;;21.00;84.00;;;;;;4981138;28;20044;-71
2022/10/03 07:25:29;;;;;;;17.35;3.63;;;21.10;84.00;;;;;;4980179;28;20038;-74
2022/10/03 07:27:57;;;;;;;;;;;21.10;83.70;;;;;;4954519;28;20262;-72
2022/10/03 07:30:26;;;;;;;13.05;3.35;;;21.20;83.90;;;;;;4980740;28;19918;-77
2022/10/03 07:33:29;;;;;;;11.95;3.58;;;21.30;83.00;;;;;;4980775;28;20045;-72
2022/10/03 07:39:41;;;;;;;16.10;3.17;;;21.30;83.20;;;;;;4981066;28;20144;-71
2022/10/03 07:42:25;;;;;;;13.93;3.05;;;21.30;83.10;;;;;;4981580;28;20038;-72
2022/10/03 07:45:03;;;;;;;13.07;3.17;;;21.40;82.20;;;;;;4981022;28;20049;-71
2022/10/03 07:47:47;;;;;;;15.35;3.45;;;21.30;83.00;;;;;;4981666;28;20075;-71
2022/10/03 07:50:27;;;;;;;13.02;3.10;;;21.30;82.80;;;;;;4962676;28;20046;-72
2022/10/03 07:53:02;;;;;;;10.07;3.00;;;21.30;82.70;;;;;;4980512;28;20031;-71
2022/10/03 07:55:52;;;;;;;8.98;2.70;;;21.20;81.90;;;;;;4980475;28;20042;-74
2022/10/03 07:58:25;;;;;;;9.27;2.60;;;21.30;81.80;;;;;;4979793;28;20105;-71
2022/10/03 08:01:05;;;;;;;6.50;2.60;;;21.30;81.80;;;;;;4980368;28;20046;-70
2022/10/03 08:04:01;;;;;;;11.75;3.00;;;21.20;81.60;;;;;;4980316;28;20046;-72
2022/10/03 08:06:47;;;;;;;9.02;2.80;;;21.20;82.40;;;;;;4980537;28;20049;-73
2022/10/03 08:09:44;;;;;;;12.40;2.55;;;21.20;82.40;;;;;;4980267;28;20134;-72
2022/10/03 08:12:19;;;;;;;9.13;2.50;;;21.20;81.80;;;;;;4980978;28;20128;-73
2022/10/03 08:15:03;;;;;;;9.48;3.00;;;21.10;81.20;;;;;;4979833;28;20121;-73
2022/10/03 08:17:56;;;;;;;11.25;2.92;;;21.20;82.40;;;;;;4980579;28;20110;-71
2022/10/03 08:20:56;;;;;;;5.32;2.40;;;21.20;82.40;;;;;;4980006;28;20026;-73
2022/10/03 08:23:34;;;;;;;27.67;4.18;;;21.20;82.10;;;;;;4974807;28;20057;-72
2022/10/03 08:26:30;;;;;;;15.40;3.50;;;21.20;81.20;;;;;;4980113;28;20047;-72
2022/10/03 08:29:23;;;;;;;6.38;2.38;;;21.20;82.00;;;;;;4962407;28;20034;-71
2022/10/03 08:32:33;;;;;;;7.07;2.25;;;21.30;82.00;;;;;;4961928;28;20034;-70
2022/10/03 08:35:42;;;;;;;10.55;2.10;;;21.30;80.90;;;;;;4980201;28;20037;-68
2022/10/03 08:38:31;;;;;;;9.32;2.90;;;21.30;81.90;;;;;;4941039;28;20051;-73
2022/10/03 08:41:29;;;;;;;14.75;3.42;;;21.30;81.80;;;;;;4979991;28;20499;-73
2022/10/03 08:44:32;;;;;;;13.23;3.65;;;21.30;81.80;;;;;;4979705;28;21589;-71
2022/10/03 08:47:23;;;;;;;14.40;3.13;;;21.40;81.40;;;;;;4980011;28;21296;-71
2022/10/03 08:50:00;;;;;;;10.30;2.70;;;21.50;81.20;;;;;;4979923;28;20642;-72
2022/10/03 08:52:54;;;;;;;19.88;2.75;;;21.50;81.00;;;;;;4979343;28;20096;-69
2022/10/03 08:55:23;;;;;;;;;;;21.60;80.90;;;;;;4979909;28;20046;-72
2022/10/03 08:58:04;;;;;;;14.50;3.22;;;21.60;80.60;;;;;;4979594;28;21073;-72
2022/10/03 09:00:54;;;;;;;9.95;2.45;;;21.60;79.70;;;;;;4961914;28;20495;-69
2022/10/03 09:03:57;;;;;;;17.30;2.72;;;21.70;80.40;;;;;;4980396;28;20372;-72
2022/10/03 09:06:51;;;;;;;12.02;2.25;;;21.80;80.50;;;;;;4979393;28;20078;-69
2022/10/03 09:09:20;;;;;;;9.60;3.30;;;21.80;79.90;;;;;;4979771;28;20057;-71
2022/10/03 09:12:00;;;;;;;10.35;2.30;;;21.90;79.30;;;;;;4979377;28;20030;-70
2022/10/03 09:14:50;;;;;;;6.88;1.90;;;22.00;78.80;;;;;;4978302;28;20145;-68
2022/10/03 09:17:19;;;;;;;8.38;2.05;;;22.10;78.60;;;;;;4978329;28;20905;-69
2022/10/03 09:20:09;;;;;;;9.48;2.22;;;22.20;78.00;;;;;;4978837;28;20097;-68
2022/10/03 09:22:48;;;;;;;7.88;2.03;;;22.20;78.70;;;;;;4978837;28;20454;-68
2022/10/03 09:25:19;;;;;;;9.00;2.28;;;22.30;77.70;;;;;;4979275;28;20054;-68
2022/10/03 09:28:16;;;;;;;8.10;2.08;;;22.40;78.00;;;;;;4979303;28;20034;-69
2022/10/03 09:31:07;;;;;;;7.68;2.00;;;22.40;77.40;;;;;;4978738;28;20113;-70
2022/10/03 09:33:41;;;;;;;5.82;2.20;;;22.50;77.00;;;;;;4979310;28;20105;-67
2022/10/03 09:36:25;;;;;;;7.25;1.90;;;22.50;77.10;;;;;;4962088;28;20392;-69
2022/10/03 09:38:50;;;;;;;7.50;1.90;;;22.60;77.10;;;;;;4979697;28;20031;-71
2022/10/03 09:42:04;;;;;;;9.55;2.35;;;22.70;76.30;;;;;;4979025;28;20026;-68
2022/10/03 09:44:44;;;;;;;6.78;2.03;;;22.80;76.80;;;;;;4919033;28;20467;-68
2022/10/03 09:47:53;;;;;;;8.25;2.42;;;22.90;76.00;;;;;;4979196;28;20038;-68
2022/10/03 09:50:45;;;;;;;6.72;2.15;;;23.00;75.80;;;;;;4979043;28;20023;-69
2022/10/03 09:53:28;;;;;;;4.47;1.88;;;23.10;75.50;;;;;;4978788;28;20174;-71
2022/10/03 09:56:06;;;;;;;7.63;2.07;;;23.10;75.10;;;;;;4978910;28;20145;-73
2022/10/03 09:59:08;;;;;;;10.50;2.38;;;23.20;74.50;;;;;;4978896;28;20791;-69
2022/10/03 10:02:04;;;;;;;7.55;2.15;;;23.20;74.20;;;;;;4978861;28;20093;-69
2022/10/03 10:04:47;;;;;;;6.93;2.13;;;23.30;74.30;;;;;;4982567;28;20084;-70
2022/10/03 10:07:57;;;;;;;12.55;2.28;;;23.40;73.60;;;;;;4982703;28;20487;-69
2022/10/03 10:10:47;;;;;;;9.52;2.50;;;23.40;73.30;;;;;;4978948;28;20389;-70
2022/10/03 10:13:37;;;;;;;9.52;2.28;;;23.50;73.50;;;;;;4982793;28;20121;-67
2022/10/03 10:16:22;;;;;;;10.15;2.78;;;23.60;73.10;;;;;;4964870;28;20034;-68
2022/10/03 10:19:13;;;;;;;7.93;2.17;;;23.70;73.00;;;;;;4949595;28;20052;-69
2022/10/03 10:21:57;;;;;;;12.57;2.20;;;23.90;72.50;;;;;;4981948;28;20068;-69
2022/10/03 10:24:45;;;;;;;;;;;23.90;71.10;;;;;;4982564;28;20041;-70
2022/10/03 10:27:44;;;;;;;8.43;2.00;;;24.00;68.90;;;;;;4982041;28;20343;-68
2022/10/03 10:30:21;;;;;;;6.63;1.80;;;24.10;69.50;;;;;;4982125;28;20050;-69
2022/10/03 10:33:14;;;;;;;5.63;1.63;;;24.20;69.40;;;;;;4982813;28;21169;-73
2022/10/03 10:35:43;;;;;;;4.93;1.80;;;24.20;69.00;;;;;;4982078;28;20575;-69
2022/10/03 10:38:34;;;;;;;7.30;1.90;;;24.30;69.10;;;;;;4981574;28;20046;-68
2022/10/03 10:41:48;;;;;;;6.90;1.80;;;24.40;67.00;;;;;;4981480;28;20034;-68
2022/10/03 10:44:55;;;;;;;8.55;2.50;;;24.50;67.30;;;;;;4963374;28;20042;-67
2022/10/03 10:47:49;;;;;;;7.78;1.75;;;24.50;67.00;;;;;;4981080;28;20042;-68
2022/10/03 10:50:49;;;;;;;8.60;1.98;;;24.60;66.90;;;;;;4980936;28;20384;-69
2022/10/03 11:07:14;;;;;;;7.53;2.25;;;24.70;67.80;;;;;;5061215;27;20133;-69
2022/10/03 11:10:01;;;;;;;9.98;1.83;;;25.40;62.40;;;;;;5055789;28;20029;-68
2022/10/03 11:12:38;;;;;;;6.05;1.92;;;25.40;63.10;;;;;;5056004;28;20028;-68
2022/10/03 11:15:52;;;;;;;3.65;1.42;;;25.40;62.20;;;;;;5055208;28;20436;-66
2022/10/03 11:18:39;;;;;;;7.25;1.88;;;25.40;62.30;;;;;;5053591;28;20853;-68
2022/10/03 11:21:16;;;;;;;6.53;2.22;;;25.40;62.10;;;;;;5055552;28;20115;-71
2022/10/03 11:24:03;;;;;;;7.13;2.33;;;25.40;62.00;;;;;;5056101;28;20068;-67
2022/10/03 11:27:10;;;;;;;5.15;2.00;;;25.50;62.40;;;;;;5055518;28;20039;-66
2022/10/03 11:30:19;;;;;;;6.40;1.77;;;25.60;62.10;;;;;;5055033;28;20043;-66
2022/10/03 11:33:12;;;;;;;7.70;1.73;;;25.70;61.50;;;;;;5055345;28;20032;-67
2022/10/03 11:35:51;;;;;;;7.10;1.45;;;25.70;61.20;;;;;;5053698;28;20024;-69
2022/10/03 11:38:19;;;;;;;4.40;1.60;;;25.80;60.80;;;;;;5053676;28;20031;-67
2022/10/03 11:40:51;;;;;;;5.03;1.27;;;25.90;60.90;;;;;;5054597;28;20032;-68
2022/10/03 11:43:47;;;;;;;5.60;1.90;;;25.90;60.50;;;;;;5054975;28;20508;-69
2022/10/03 11:46:25;;;;;;;4.32;1.52;;;25.90;59.50;;;;;;5054671;28;20082;-70
2022/10/03 11:49:17;;;;;;;5.50;1.42;;;26.00;60.10;;;;;;5054940;28;20036;-67
2022/10/03 11:51:57;;;;;;;5.57;1.77;;;26.10;59.70;;;;;;5016681;28;20127;-68
2022/10/03 11:54:27;;;;;;;4.05;1.55;;;26.10;59.40;;;;;;5053809;28;20060;-69
2022/10/03 11:57:08;;;;;;;8.48;2.22;;;26.20;59.00;;;;;;5054682;28;20039;-71
2022/10/03 12:00:09;;;;;;;38.92;11.65;;;26.20;58.40;;;;;;5054248;28;20040;-66
2022/10/03 12:02:47;;;;;;;7.53;2.22;;;26.30;58.60;;;;;;5054130;28;20041;-70
2022/10/03 12:05:17;;;;;;;8.00;3.20;;;26.30;58.40;;;;;;5054047;28;20079;-67
2022/10/03 12:11:01;;;;;;;8.25;2.47;;;26.40;57.40;;;;;;5041812;28;20035;-67
2022/10/03 12:13:46;;;;;;;6.00;1.77;;;26.40;57.40;;;;;;5042372;28;20161;-68
2022/10/03 12:16:35;;;;;;;6.22;1.60;;;26.60;57.30;;;;;;5041883;28;20036;-67
2022/10/03 12:19:46;;;;;;;5.13;1.58;;;26.60;56.70;;;;;;5031056;28;20049;-74
2022/10/03 12:22:36;;;;;;;8.75;1.80;;;26.50;56.50;;;;;;5040873;28;20108;-67
2022/10/03 12:25:29;;;;;;;4.18;1.70;;;26.50;56.40;;;;;;5041140;28;20472;-69
2022/10/03 12:27:58;;;;;;;6.63;1.80;;;26.60;56.90;;;;;;5032199;28;20068;-68
2022/10/03 12:30:26;;;;;;;6.00;1.52;;;26.70;56.30;;;;;;5041054;28;20041;-70
2022/10/03 12:32:57;;;;;;;3.97;1.58;;;26.80;56.50;;;;;;5040767;28;20048;-69
2022/10/03 12:35:42;;;;;;;5.00;1.70;;;26.80;56.30;;;;;;5040755;28;20428;-69
2022/10/03 12:38:51;;;;;;;5.82;1.42;;;26.90;55.40;;;;;;5040717;28;20450;-69
2022/10/03 12:41:44;;;;;;;4.25;1.35;;;26.90;55.00;;;;;;5040966;28;20640;-69
2022/10/03 12:44:37;;;;;;;6.65;1.55;;;26.90;55.60;;;;;;5027722;28;20484;-70
2022/10/03 12:47:27;;;;;;;5.18;1.40;;;26.90;54.70;;;;;;5040740;28;20170;-67
2022/10/03 12:50:17;;;;;;;9.32;2.05;;;27.00;53.90;;;;;;5040163;28;20039;-67
2022/10/03 12:52:53;;;;;;;6.55;1.45;;;27.00;54.00;;;;;;5040428;28;20033;-70
2022/10/03 12:55:35;;;;;;;3.97;1.63;;;27.10;54.10;;;;;;5040589;28;20124;-69
2022/10/03 12:58:38;;;;;;;5.20;1.50;;;27.10;53.20;;;;;;5040176;28;20032;-69
2022/10/03 13:01:35;;;;;;;5.38;1.67;;;27.20;52.90;;;;;;4999315;28;20357;-67
2022/10/03 13:04:28;;;;;;;7.43;2.13;;;27.30;51.80;;;;;;5040099;28;20517;-69
2022/10/03 13:07:26;;;;;;;8.07;2.03;;;27.40;51.20;;;;;;5040182;28;20072;-72
2022/10/03 13:10:21;;;;;;;5.32;1.70;;;27.40;51.50;;;;;;5040177;28;20075;-69
2022/10/03 13:12:52;;;;;;;6.72;1.75;;;27.40;51.40;;;;;;5040127;28;20021;-68
2022/10/03 13:15:30;;;;;;;6.28;2.00;;;27.50;51.70;;;;;;5039071;28;20044;-68
2022/10/03 13:18:14;;;;;;;7.20;2.40;;;27.50;50.60;;;;;;5038271;28;20444;-68
2022/10/03 13:20:42;;;;;;;;;;;27.60;50.00;;;;;;5040516;28;20029;-70
2022/10/03 13:23:14;;;;;;;8.15;1.77;;;27.60;50.40;;;;;;5037292;28;19924;-68
2022/10/03 13:25:54;;;;;;;6.38;1.50;;;27.60;51.50;;;;;;5036956;28;20040;-68
2022/10/03 13:28:32;;;;;;;3.75;1.45;;;27.70;51.60;;;;;;5039479;28;20780;-68
2022/10/03 13:31:14;;;;;;;6.40;2.00;;;27.70;51.20;;;;;;5040383;28;20055;-68
2022/10/03 13:33:49;;;;;;;7.63;1.85;;;27.80;50.10;;;;;;5037861;28;20048;-67
2022/10/03 13:36:22;;;;;;;4.70;1.75;;;27.70;51.70;;;;;;5039050;28;20123;-68
2022/10/03 13:39:12;;;;;;;13.93;2.30;;;27.80;51.30;;;;;;5038627;28;20028;-69
2022/10/03 13:41:59;;;;;;;17.73;2.53;;;27.90;50.00;;;;;;5039396;28;20036;-67
2022/10/03 13:44:38;;;;;;;4.43;1.50;;;28.00;49.60;;;;;;5038713;28;20041;-72
2022/10/03 13:47:24;;;;;;;5.35;1.60;;;28.00;48.80;;;;;;5039559;28;20086;-71
2022/10/03 13:49:57;;;;;;;7.32;2.20;;;28.10;50.30;;;;;;5039000;28;20143;-73
2022/10/03 13:53:00;;;;;;;7.43;1.58;;;28.10;48.60;;;;;;5039279;28;20028;-72
2022/10/03 13:55:44;;;;;;;6.57;1.88;;;28.10;49.60;;;;;;5038143;28;20498;-69
2022/10/03 13:58:54;;;;;;;21.88;3.17;;;28.20;50.50;;;;;;5040298;28;20516;-73
2022/10/03 14:01:58;;;;;;;5.28;2.00;;;28.10;52.30;;;;;;5040246;28;20124;-69
2022/10/03 14:04:45;;;;;;;12.10;2.50;;;28.00;53.80;;;;;;5038846;28;20098;-70
2022/10/03 14:07:11;;;;;;;7.10;2.20;;;28.00;54.50;;;;;;5038868;28;20041;-70
2022/10/03 14:09:45;;;;;;;9.20;2.35;;;28.00;55.10;;;;;;5038823;28;20036;-74
2022/10/03 14:12:23;;;;;;;8.77;1.90;;;28.00;54.80;;;;;;5040479;28;20021;-67
2022/10/03 14:15:23;;;;;;;7.05;1.90;;;28.00;55.30;;;;;;5039578;28;20539;-70
2022/10/03 14:17:55;;;;;;;6.78;1.85;;;28.10;55.80;;;;;;5040428;28;20481;-72
2022/10/03 14:20:49;;;;;;;7.22;1.95;;;28.10;54.70;;;;;;5039308;28;20040;-67
2022/10/03 14:23:31;;;;;;;7.85;2.10;;;28.10;55.40;;;;;;5038679;28;20033;-71
2022/10/03 14:26:09;;;;;;;9.02;2.00;;;28.10;55.50;;;;;;5039060;28;20135;-72
2022/10/03 14:28:44;;;;;;;6.72;1.75;;;28.00;55.50;;;;;;5039078;28;20039;-72
2022/10/03 14:31:41;;;;;;;6.20;1.88;;;28.10;56.10;;;;;;5039312;28;20537;-72
2022/10/03 14:34:41;;;;;;;6.20;2.00;;;28.00;56.20;;;;;;5035387;28;20580;-68
2022/10/03 14:37:21;;;;;;;5.65;1.60;;;28.10;55.40;;;;;;5038450;28;20033;-71
2022/10/03 14:40:11;;;;;;;9.23;1.95;;;28.10;55.60;;;;;;5038219;28;20036;-72
2022/10/03 14:42:39;;;;;;;14.15;2.75;;;28.00;56.00;;;;;;5038201;28;20148;-68
2022/10/03 14:45:30;;;;;;;8.32;1.83;;;27.90;56.40;;;;;;5037709;28;20067;-70
2022/10/03 14:48:07;;;;;;;8.90;1.70;;;27.90;56.90;;;;;;5038229;28;20033;-69
2022/10/03 14:50:37;;;;;;;11.80;2.70;;;27.90;56.80;;;;;;5036627;28;20029;-68
2022/10/03 14:53:09;;;;;;;8.55;2.05;;;27.90;56.90;;;;;;5038352;28;20037;-67